Time;durP1;ratioP1;P1;durP2;ratioP2;P2;SDS_P1;SDS_P2;PMS_P1;PMS_P2;Temp;Humidity;BMP_temperature;BMP_pressure;BME280_temperature;BME280_humidity;BME280_pressure;Samples;Min_cycle;Max_cycle;Signal;HPM_P1;HPM_P2
2022/09/04 00:02:27;;;;;;;7.05;4.90;;;;;;;-140.72;0.00;52175.78;5060661;28;20090;-71
2022/09/04 00:04:52;;;;;;;7.68;4.90;;;;;;;-140.72;0.00;52159.56;5060095;28;20032;-71
2022/09/04 00:07:28;;;;;;;6.63;5.57;;;;;;;-140.72;0.00;52175.78;5065947;28;20102;-70
2022/09/04 00:10:15;;;;;;;8.25;6.20;;;;;;;-140.72;0.00;52189.97;5063675;28;20609;-70
2022/09/04 00:12:50;;;;;;;7.28;6.40;;;;;;;-140.72;0.00;52224.47;5067190;28;20395;-70
2022/09/04 00:15:18;;;;;;;8.82;7.80;;;;;;;-140.72;0.00;52187.97;5066041;28;20648;-71
2022/09/04 00:17:55;;;;;;;14.57;6.70;;;;;;;-140.72;0.00;52196.06;5062782;28;20029;-70
2022/09/04 00:20:31;;;;;;;6.82;5.82;;;;;;;-140.72;0.00;52202.16;5062432;28;20029;-71
2022/09/04 00:23:04;;;;;;;9.57;6.25;;;;;;;-140.72;0.00;52210.28;5064517;28;20397;-71
2022/09/04 00:25:44;;;;;;;6.60;5.90;;;;;;;-140.72;0.00;52212.31;5061580;28;20385;-71
2022/09/04 00:28:24;;;;;;;9.40;7.28;;;;;;;-140.72;0.00;52210.28;5060751;28;20036;-70
2022/09/04 00:30:58;;;;;;;7.70;5.65;;;;;;;-140.72;0.00;52183.91;5068662;28;20036;-71
2022/09/04 00:33:34;;;;;;;9.05;7.40;;;;;;;-140.72;0.00;52261.00;5066645;28;20035;-70
2022/09/04 00:36:02;;;;;;;7.82;7.00;;;;;;;-140.72;0.00;52218.38;5065684;28;20048;-70
2022/09/04 00:38:52;;;;;;;8.48;6.35;;;;;;;-140.72;0.00;52192.00;5061500;28;20170;-70
2022/09/04 00:41:29;;;;;;;7.07;5.53;;;;;;;-140.72;0.00;52204.19;5063382;28;20358;-71
2022/09/04 00:44:32;;;;;;;9.85;6.32;;;;;;;-140.72;0.00;52196.06;5062430;28;20115;-70
2022/09/04 00:47:15;;;;;;;8.32;6.28;;;;;;;-140.72;0.00;52200.13;5065392;28;20036;-71
2022/09/04 00:49:59;;;;;;;6.78;5.60;;;;;;;-140.72;0.00;52171.72;5063266;28;20495;-71
2022/09/04 00:52:34;;;;;;;9.20;6.47;;;;;;;-140.72;0.00;52196.06;5064240;28;20401;-71
2022/09/04 00:55:28;;;;;;;8.60;6.75;;;;;;;-140.72;0.00;52202.16;5058151;28;20029;-71
2022/09/04 00:58:00;;;;;;;7.18;5.38;;;;;;;-140.72;0.00;52194.03;5052042;28;20063;-70
2022/09/04 01:00:27;;;;;;;9.55;6.97;;;;;;;-140.72;0.00;52222.44;5063627;28;20032;-71
2022/09/04 01:03:11;;;;;;;8.18;6.47;;;;;;;-140.72;0.00;52210.28;5063017;28;20088;-71
2022/09/04 01:06:04;;;;;;;7.45;5.18;;;;;;;-140.72;0.00;52173.75;5061897;28;20064;-69
2022/09/04 01:08:39;;;;;;;7.65;5.15;;;;;;;-140.72;0.00;52206.22;5060042;28;20025;-71
2022/09/04 01:11:23;;;;;;;8.55;6.35;;;;;;;-140.72;0.00;52173.75;5058284;28;20044;-70
2022/09/04 01:14:13;;;;;;;8.90;6.93;;;;;;;-140.72;0.00;52214.34;5062830;28;20480;-70
2022/09/04 01:16:56;;;;;;;8.50;4.95;;;;;;;-140.72;0.00;52208.25;5057023;28;20062;-71
2022/09/04 01:19:40;;;;;;;6.55;5.78;;;;;;;-140.72;0.00;52206.22;5064784;28;20086;-71
2022/09/04 01:22:43;;;;;;;7.90;6.20;;;;;;;-140.72;0.00;52222.44;5058008;28;20039;-70
2022/09/04 01:25:23;;;;;;;8.90;5.78;;;;;;;-140.72;0.00;52220.41;5057469;28;20136;-71
2022/09/04 01:28:02;;;;;;;6.93;5.40;;;;;;;-140.72;0.00;52202.16;5059022;28;20025;-71
2022/09/04 01:30:37;;;;;;;7.03;5.53;;;;;;;-140.72;0.00;52200.13;5057521;28;20033;-72
2022/09/04 01:33:23;;;;;;;6.82;5.55;;;;;;;-140.72;0.00;52210.28;5065579;28;20477;-71
2022/09/04 01:36:13;;;;;;;6.75;5.88;;;;;;;-140.72;0.00;52200.13;5065521;28;20021;-70
2022/09/04 01:38:55;;;;;;;7.47;5.68;;;;;;;-140.72;0.00;52208.25;5057474;28;20021;-70
2022/09/04 01:41:29;;;;;;;9.07;6.00;;;;;;;-140.72;0.00;52161.56;5058136;28;20033;-69
2022/09/04 01:43:55;;;;;;;7.78;5.95;;;;;;;-140.72;0.00;52216.34;5056360;28;20024;-70
2022/09/04 01:46:56;;;;;;;8.98;6.57;;;;;;;-140.72;0.00;52230.56;5055463;28;20393;-69
2022/09/04 01:49:28;;;;;;;8.07;6.53;;;;;;;-140.72;0.00;52218.38;5062548;28;20074;-70
2022/09/04 01:52:09;;;;;;;9.18;6.07;;;;;;;-140.72;0.00;52222.44;5064580;28;20040;-70
2022/09/04 01:55:12;;;;;;;9.85;6.78;;;;;;;-140.72;0.00;52212.31;5066607;28;20048;-70
2022/09/04 01:58:29;;;;;;;6.55;5.95;;;;;;;-140.72;0.00;52263.03;5070683;28;20036;-70
2022/09/04 02:01:06;;;;;;;7.07;5.40;;;;;;;-140.72;0.00;52198.09;5044945;28;20090;-69
2022/09/04 02:03:39;;;;;;;7.75;6.13;;;;;;;-140.72;0.00;52228.53;5072291;28;20032;-70
2022/09/04 02:06:32;;;;;;;6.80;5.63;;;;;;;-140.72;0.00;52204.19;5064928;28;20127;-70
2022/09/04 02:09:28;;;;;;;6.97;5.68;;;;;;;-140.72;0.00;52234.63;5060036;28;20044;-70
2022/09/04 02:12:49;;;;;;;6.80;5.97;;;;;;;-140.72;0.00;52220.41;5068458;28;20472;-71
2022/09/04 02:15:38;;;;;;;6.22;5.22;;;;;;;-140.72;0.00;52202.16;5038741;28;20048;-71
2022/09/04 02:18:05;;;;;;;6.97;6.15;;;;;;;-140.72;0.00;52218.38;5061434;28;20472;-71
2022/09/04 02:20:31;;;;;;;7.97;6.57;;;;;;;-140.72;0.00;52236.66;5065205;28;20029;-71
2022/09/04 02:22:56;;;;;;;8.48;6.10;;;;;;;-140.72;0.00;52228.53;5061856;28;20029;-70
2022/09/04 02:25:40;;;;;;;7.45;5.45;;;;;;;-140.72;0.00;52261.00;5056015;28;20055;-69
2022/09/04 02:28:23;;;;;;;7.47;5.28;;;;;;;-140.72;0.00;52246.78;5070095;28;20403;-71
2022/09/04 02:31:17;;;;;;;7.28;5.40;;;;;;;-140.72;0.00;52236.66;5067608;28;20538;-71
2022/09/04 02:34:32;;;;;;;7.20;5.35;;;;;;;-140.72;0.00;52212.31;5060370;28;20052;-70
2022/09/04 02:37:40;;;;;;;7.22;5.80;;;;;;;-140.72;0.00;52232.59;5031845;28;20503;-69
2022/09/04 02:40:17;;;;;;;7.50;6.72;;;;;;;-140.72;0.00;52214.34;5052301;28;20419;-71
2022/09/04 02:43:13;;;;;;;7.85;7.03;;;;;;;-140.72;0.00;52206.22;5064768;28;20314;-70
2022/09/04 02:45:58;;;;;;;6.78;5.65;;;;;;;-140.72;0.00;52277.22;5067276;28;20039;-70
2022/09/04 02:48:48;;;;;;;7.18;6.32;;;;;;;-140.72;0.00;52248.81;5066348;28;20035;-70
2022/09/04 02:51:33;;;;;;;10.02;7.13;;;;;;;-140.72;0.00;52226.50;5067866;28;20037;-70
2022/09/04 02:54:31;;;;;;;7.35;5.43;;;;;;;-140.72;0.00;52254.91;5068423;28;20163;-70
2022/09/04 02:57:11;;;;;;;10.52;6.90;;;;;;;-140.72;0.00;52226.50;5042923;28;20040;-70
2022/09/04 03:00:01;;;;;;;10.68;7.97;;;;;;;-140.72;0.00;52222.44;5056542;28;20024;-70
2022/09/04 03:02:34;;;;;;;7.68;6.47;;;;;;;-140.72;0.00;52254.91;5070622;28;20028;-70
2022/09/04 03:05:05;;;;;;;7.53;6.05;;;;;;;-140.72;0.00;52232.59;5071968;28;20044;-70
2022/09/04 03:07:48;;;;;;;7.43;5.95;;;;;;;-140.72;0.00;52230.56;5058183;28;20392;-71
2022/09/04 03:10:18;;;;;;;8.25;5.60;;;;;;;-140.72;0.00;52242.75;5070092;28;20115;-70
2022/09/04 03:13:04;;;;;;;8.93;6.32;;;;;;;-140.72;0.00;52228.53;5071141;28;20315;-70
2022/09/04 03:15:42;;;;;;;7.60;6.35;;;;;;;-140.72;0.00;52267.09;5069040;28;20036;-72
2022/09/04 03:18:22;;;;;;;8.93;6.70;;;;;;;-140.72;0.00;52220.41;5071515;28;20045;-69
2022/09/04 03:20:55;;;;;;;6.65;5.68;;;;;;;-140.72;0.00;52289.41;5062935;28;20035;-70
2022/09/04 03:24:05;;;;;;;7.28;6.18;;;;;;;-140.72;0.00;52236.66;5052593;28;20102;-70
2022/09/04 03:26:43;;;;;;;9.65;6.55;;;;;;;-140.72;0.00;52220.41;5040373;28;20073;-70
2022/09/04 03:29:14;;;;;;;8.60;6.32;;;;;;;-140.72;0.00;52269.13;5066328;28;20036;-71
2022/09/04 03:32:02;;;;;;;9.32;5.95;;;;;;;-140.72;0.00;52234.63;5055192;28;20036;-70
2022/09/04 03:34:49;;;;;;;5.63;5.03;;;;;;;-140.72;0.00;52269.13;5058161;28;20438;-70
2022/09/04 03:37:40;;;;;;;6.65;5.95;;;;;;;-140.72;0.00;52269.13;5070558;28;20525;-70
2022/09/04 03:40:08;;;;;;;8.05;5.82;;;;;;;-140.72;0.00;52244.78;5064295;28;20074;-70
2022/09/04 03:43:05;;;;;;;7.43;6.28;;;;;;;-140.72;0.00;52263.03;5069458;28;20093;-70
2022/09/04 03:45:45;;;;;;;7.20;5.63;;;;;;;-140.72;0.00;52263.03;5064040;28;20392;-71
2022/09/04 03:48:35;;;;;;;8.40;6.13;;;;;;;-140.72;0.00;52244.78;5068734;28;20024;-71
2022/09/04 03:51:14;;;;;;;9.48;7.38;;;;;;;-140.72;0.00;52258.97;5066223;28;20030;-70
2022/09/04 03:53:42;;;;;;;9.57;6.95;;;;;;;-140.72;0.00;52236.66;5065889;28;20033;-70
2022/09/04 03:56:34;;;;;;;6.53;5.57;;;;;;;-140.72;0.00;52256.94;5069843;28;20119;-70
2022/09/04 03:59:02;;;;;;;7.72;5.85;;;;;;;-140.72;0.00;52267.09;5067815;28;20031;-69
2022/09/04 04:01:36;;;;;;;9.18;7.28;;;;;;;-140.72;0.00;52291.44;5064933;28;20059;-70
2022/09/04 04:04:33;;;;;;;7.43;5.90;;;;;;;-140.72;0.00;52240.72;5075228;28;20118;-69
2022/09/04 04:07:27;;;;;;;8.27;6.68;;;;;;;-140.72;0.00;52228.53;5070743;28;20117;-70
2022/09/04 04:10:18;;;;;;;9.98;6.80;;;;;;;-140.72;2.77;52291.44;5068017;28;20408;-72
2022/09/04 04:12:55;;;;;;;7.13;5.75;;;;;;;-140.72;2.68;52256.94;5069070;28;20044;-73
2022/09/04 04:15:31;;;;;;;9.02;6.95;;;;;;;-140.72;2.92;52212.31;5068505;28;20043;-73
2022/09/04 04:18:18;;;;;;;8.40;7.28;;;;;;;-140.72;0.41;52285.34;5061762;28;20067;-73
2022/09/04 04:21:09;;;;;;;7.70;6.03;;;;;;;-140.72;0.00;52297.53;5062004;28;20394;-71
2022/09/04 04:23:40;;;;;;;7.35;5.35;;;;;;;-140.72;0.00;52248.81;5065751;28;20036;-71
2022/09/04 04:26:39;;;;;;;8.85;6.38;;;;;;;-140.72;0.00;52293.47;5060754;28;20063;-73
2022/09/04 04:29:31;;;;;;;10.52;6.78;;;;;;;-140.72;0.00;52263.03;5066416;28;20036;-73
2022/09/04 04:32:15;;;;;;;9.02;6.93;;;;;;;-140.72;0.00;52281.28;5060660;28;20036;-74
2022/09/04 04:35:04;;;;;;;7.65;6.35;;;;;;;-140.72;0.00;52248.81;5060057;28;20068;-76
2022/09/04 04:37:52;;;;;;;7.47;6.45;;;;;;;-140.72;0.00;52256.94;5037181;28;20052;-74
2022/09/04 04:40:26;;;;;;;8.82;6.40;;;;;;;-140.72;0.00;52273.19;5064445;28;20040;-73
2022/09/04 04:43:23;;;;;;;10.52;7.13;;;;;;;-140.72;0.00;52244.78;5068619;28;20033;-73
2022/09/04 04:46:03;;;;;;;8.15;6.45;;;;;;;-140.72;0.00;52279.25;5058535;28;20388;-73
2022/09/04 04:48:48;;;;;;;8.90;7.50;;;;;;;-140.72;1.82;52307.66;5059452;28;20025;-72
2022/09/04 04:51:31;;;;;;;9.25;7.60;;;;;;;-140.72;2.89;52244.78;5063795;28;20033;-73
2022/09/04 04:54:12;;;;;;;8.88;7.63;;;;;;;-140.72;3.04;52236.66;5069117;28;20173;-72
2022/09/04 04:56:46;;;;;;;9.43;7.90;;;;;;;-140.72;5.62;52232.59;5076702;28;20052;-70
2022/09/04 04:59:30;;;;;;;9.85;8.68;;;;;;;-140.72;10.26;52279.25;5072536;28;20028;-72
2022/09/04 05:02:12;;;;;;;11.90;8.45;;;;;;;-140.72;14.26;52244.78;5062228;28;20622;-73
2022/09/04 05:04:52;;;;;;;8.77;7.18;;;;;;;-140.72;14.19;52281.28;5066471;28;20042;-73
2022/09/04 05:07:59;;;;;;;9.77;7.38;;;;;;;-140.72;15.09;52303.59;5069286;28;20036;-72
2022/09/04 05:10:46;;;;;;;8.45;6.65;;;;;;;-140.72;17.34;52299.56;5064995;28;20091;-72
2022/09/04 05:13:30;;;;;;;9.55;7.85;;;;;;;-140.72;20.97;52248.81;5066786;28;20035;-74
2022/09/04 05:16:10;;;;;;;10.13;8.38;;;;;;;-140.72;26.47;52258.97;5064999;28;20647;-72
2022/09/04 05:18:43;;;;;;;9.10;7.72;;;;;;;-140.72;26.42;52277.22;5064592;28;20048;-72
2022/09/04 05:21:28;;;;;;;8.00;7.20;;;;;;;-140.72;23.27;52279.25;5070565;28;20097;-72
2022/09/04 05:24:01;;;;;;;8.73;6.57;;;;;;;-140.72;24.03;52315.78;5068201;28;20393;-75
2022/09/04 05:26:42;;;;;;;10.85;7.38;;;;;;;-140.72;25.15;52285.34;5074037;28;20032;-74
2022/09/04 05:29:33;;;;;;;9.15;7.53;;;;;;;-140.72;29.18;52232.59;5073675;28;20047;-72
2022/09/04 05:32:16;;;;;;;10.18;7.55;;;;;;;-140.72;34.46;52289.41;5056883;28;20428;-74
2022/09/04 05:34:53;;;;;;;11.95;7.63;;;;;;;-140.72;41.33;52281.28;5069218;28;20086;-72
2022/09/04 05:37:30;;;;;;;11.95;8.18;;;;;;;-140.72;42.52;52281.28;5064403;28;20119;-72
2022/09/04 05:40:10;;;;;;;9.82;7.97;;;;;;;-140.72;44.52;52305.63;5066556;28;20055;-74
2022/09/04 05:42:35;;;;;;;10.52;8.93;;;;;;;-140.72;45.00;52283.31;5071215;28;20037;-73
2022/09/04 05:45:07;;;;;;;8.95;7.63;;;;;;;-140.72;45.28;52238.69;5069005;28;20047;-71
2022/09/04 05:47:38;;;;;;;10.25;8.18;;;;;;;-140.72;44.81;52297.53;5061916;28;20614;-71
2022/09/04 05:50:18;;;;;;;11.45;8.43;;;;;;;-140.72;45.88;52299.56;5054178;28;20025;-73
2022/09/04 05:53:08;;;;;;;11.05;8.77;;;;;;;-140.72;48.53;52267.09;5056005;28;20082;-73
2022/09/04 05:55:36;;;;;;;9.02;7.32;;;;;;;-140.72;49.17;52261.00;5060316;28;20032;-73
2022/09/04 05:58:16;;;;;;;9.75;8.30;;;;;;;-140.72;49.62;52248.81;5064157;28;20092;-72
2022/09/04 06:00:47;;;;;;;9.45;6.93;;;;;;;-140.72;52.76;52285.34;5056738;28;20045;-71
2022/09/04 06:03:27;;;;;;;8.07;7.18;;;;;;;-140.72;50.30;52242.75;5062683;28;20033;-72
2022/09/04 06:06:12;;;;;;;8.70;7.78;;;;;;;-140.72;48.34;52250.84;5058976;28;20044;-72
2022/09/04 06:09:16;;;;;;;11.43;8.73;;;;;;;-140.72;51.63;52248.81;5059768;28;20446;-73
2022/09/04 06:11:53;;;;;;;8.10;6.93;;;;;;;-140.72;49.62;52242.75;5055116;28;20047;-73
2022/09/04 06:14:46;;;;;;;9.05;7.78;;;;;;;-140.72;48.18;52248.81;5063854;28;20333;-74
2022/09/04 06:17:46;;;;;;;9.55;7.25;;;;;;;-140.72;45.94;52252.88;5058977;28;20465;-71
2022/09/04 06:20:34;;;;;;;9.98;8.30;;;;;;;-140.72;46.67;52263.03;5062609;28;20049;-71
2022/09/04 06:23:21;;;;;;;9.68;7.57;;;;;;;-140.72;47.54;52252.88;5058329;28;20130;-72
2022/09/04 06:25:50;;;;;;;7.85;6.43;;;;;;;-140.72;45.43;52256.94;5058728;28;20377;-71
2022/09/04 06:28:31;;;;;;;10.77;8.45;;;;;;;-140.72;51.83;52256.94;5056234;28;20081;-74
2022/09/04 06:31:19;;;;;;;9.48;7.38;;;;;;;-140.72;52.91;52265.06;5057569;28;20033;-71
2022/09/04 06:34:03;;;;;;;10.02;8.70;;;;;;;-140.72;61.12;52232.59;5044539;28;20128;-74
2022/09/04 06:36:56;;;;;;;12.70;9.48;;;;;;;-140.72;64.65;52224.47;5062600;28;20411;-70
2022/09/04 06:39:47;;;;;;;12.00;10.00;;;;;;;-140.72;68.79;52293.47;5059632;28;20079;-72
2022/09/04 06:42:25;;;;;;;9.43;7.97;;;;;;;-140.72;68.00;52248.81;5062504;28;20463;-71
2022/09/04 06:45:09;;;;;;;11.77;9.93;;;;;;;-140.72;71.97;52246.78;5060859;28;20086;-69
2022/09/04 06:47:44;;;;;;;14.00;9.30;;;;;;;-140.72;74.45;52236.66;5060783;28;20033;-71
2022/09/04 06:50:29;;;;;;;10.65;9.07;;;;;;;-140.72;75.22;52269.13;5060515;28;20366;-70
2022/09/04 06:53:20;;;;;;;10.60;8.13;;;;;;;-140.72;76.80;52216.34;5061807;28;20025;-71
2022/09/04 06:56:08;;;;;;;10.82;9.10;;;;;;;-140.72;75.92;52224.47;5063047;28;20083;-68
2022/09/04 06:59:10;;;;;;;10.43;8.65;;;;;;;-140.72;75.45;52232.59;5058279;28;20036;-68
2022/09/04 07:01:51;;;;;;;11.15;9.25;;;;;;;-140.72;73.23;52250.84;5066041;28;20040;-67
2022/09/04 07:04:27;;;;;;;9.98;8.90;;;;;;;-140.72;72.37;52224.47;5067268;28;20041;-68
2022/09/04 07:07:18;;;;;;;10.13;9.07;;;;;;;-140.72;70.71;52254.91;5059365;28;20155;-68
2022/09/04 07:09:48;;;;;;;11.90;9.05;;;;;;;-140.72;70.75;52234.63;5059957;28;20425;-67
2022/09/04 07:12:29;;;;;;;11.40;8.02;;;;;;;-140.72;70.64;52252.88;5059818;28;20035;-68
2022/09/04 07:15:17;;;;;;;10.38;9.18;;;;;;;-140.72;70.09;52228.53;5060521;28;20068;-67
2022/09/04 07:18:02;;;;;;;11.82;9.55;;;;;;;-140.72;68.85;52208.25;5059545;28;20044;-68
2022/09/04 07:20:40;;;;;;;13.05;10.25;;;;;;;-140.72;66.10;52265.06;5056795;28;20045;-69
2022/09/04 07:23:22;;;;;;;11.77;9.35;;;;;;;-140.72;65.23;52228.53;5055827;28;20073;-68
2022/09/04 07:25:59;;;;;;;11.48;9.90;;;;;;;-140.72;65.42;52208.25;5055072;28;20040;-70
2022/09/04 07:28:50;;;;;;;11.60;9.82;;;;;;;-140.72;63.73;52200.13;5060272;28;20035;-67
2022/09/04 07:31:25;;;;;;;11.85;10.60;;;;;;;-140.72;60.71;52196.06;5058797;28;20024;-70
2022/09/04 07:34:18;;;;;;;13.63;10.20;;;;;;;-140.72;57.67;52187.97;5059464;28;20389;-70
2022/09/04 07:37:04;;;;;;;13.90;10.68;;;;;;;-140.72;54.01;52222.44;5062170;28;20029;-70
2022/09/04 07:39:41;;;;;;;18.70;10.95;;;;;;;-140.72;51.92;52212.31;5062780;28;20107;-68
2022/09/04 07:42:26;;;;;;;12.82;11.23;;;;;;;-140.72;45.40;52200.13;5059259;28;20396;-68
2022/09/04 07:45:01;;;;;;;11.32;9.57;;;;;;;-140.72;37.05;52204.19;5060280;28;20032;-68
2022/09/04 07:47:34;;;;;;;14.68;10.40;;;;;;;-140.72;32.40;52147.38;5060710;28;20033;-68
2022/09/04 07:50:08;;;;;;;12.57;10.50;;;;;;;-140.72;26.81;52175.78;5060852;28;20036;-68
2022/09/04 07:53:13;;;;;;;12.55;10.32;;;;;;;-140.72;20.35;52167.66;5063484;28;20032;-68
2022/09/04 07:55:47;;;;;;;13.20;10.00;;;;;;;-140.72;13.42;52212.31;5061210;28;20123;-68
2022/09/04 07:58:49;;;;;;;17.38;10.68;;;;;;;-140.72;10.02;52155.50;5061152;28;20036;-69
2022/09/04 08:01:32;;;;;;;16.02;10.65;;;;;;;-140.72;7.70;52189.97;5024629;28;20053;-67
2022/09/04 08:04:26;;;;;;;13.88;10.60;;;;;;;-140.72;7.94;52155.50;5066058;28;20409;-72
2022/09/04 08:07:05;;;;;;;13.32;10.18;;;;;;;-140.72;3.17;52135.19;5064554;28;20480;-73
2022/09/04 08:09:46;;;;;;;16.30;11.93;;;;;;;-140.72;0.00;52161.56;5066777;28;20074;-72
2022/09/04 08:12:27;;;;;;;15.80;12.23;;;;;;;-140.72;0.00;52149.41;5057422;28;20033;-76
2022/09/04 08:14:54;;;;;;;14.00;10.82;;;;;;;-140.72;0.00;52090.56;5060304;28;20060;-72
2022/09/04 08:17:26;;;;;;;15.95;10.93;;;;;;;-140.72;0.00;52139.25;5065116;28;20469;-71
2022/09/04 08:19:56;;;;;;;13.15;10.55;;;;;;;-140.72;0.00;52165.63;5058908;28;20041;-71
2022/09/04 08:22:41;;;;;;;19.05;12.75;;;;;;;-140.72;0.00;52086.50;5059594;28;20488;-71
2022/09/04 08:25:44;;;;;;;15.30;11.73;;;;;;;-140.72;0.00;52135.19;5056229;28;20116;-70
2022/09/04 08:28:43;;;;;;;15.52;11.95;;;;;;;-140.72;0.00;52125.06;5059595;28;20509;-73
2022/09/04 08:31:28;;;;;;;17.53;10.97;;;;;;;-140.72;0.00;52096.66;5060305;28;20032;-75
2022/09/04 08:34:17;;;;;;;14.02;12.45;;;;;;;-140.72;0.00;52129.13;5061845;28;20457;-75
2022/09/04 08:37:09;;;;;;;;;;;;;;;-140.72;0.00;52096.66;5065795;28;20025;-74
2022/09/04 08:39:43;;;;;;;16.20;12.88;;;;;;;-140.72;0.00;52086.50;5039639;28;20349;-73
2022/09/04 08:42:25;;;;;;;18.00;14.48;;;;;;;-140.72;0.00;52112.88;5063973;28;20109;-72
2022/09/04 08:45:14;;;;;;;15.07;11.10;;;;;;;-140.72;0.00;52110.84;5067922;28;20028;-73
2022/09/04 08:48:18;;;;;;;14.35;11.20;;;;;;;-140.72;0.00;52041.88;5062411;28;21170;-74
2022/09/04 08:51:25;;;;;;;16.27;12.65;;;;;;;-140.72;0.00;52043.91;5059589;28;20114;-75
2022/09/04 08:54:02;;;;;;;19.40;13.18;;;;;;;-140.72;0.00;52037.81;4999722;28;20079;-73
2022/09/04 08:56:52;;;;;;;14.30;12.27;;;;;;;-140.72;0.00;51993.19;5072499;28;20036;-73
2022/09/04 08:59:56;;;;;;;14.05;11.38;;;;;;;-140.72;0.00;51989.13;5063920;28;20116;-73
2022/09/04 09:02:38;;;;;;;15.35;10.85;;;;;;;-140.72;0.00;51956.66;5065674;28;20060;-72
2022/09/04 09:05:37;;;;;;;15.18;12.32;;;;;;;-140.72;0.00;51972.88;5059827;28;20071;-73
2022/09/04 09:08:20;;;;;;;14.57;10.07;;;;;;;-140.72;0.00;51968.81;5062690;28;20043;-71
2022/09/04 09:11:02;;;;;;;15.98;11.88;;;;;;;-140.72;0.00;52005.34;5058107;28;20154;-70
2022/09/04 09:13:52;;;;;;;15.50;11.30;;;;;;;-140.72;0.00;51940.41;5073497;28;20094;-72
2022/09/04 09:16:20;;;;;;;13.48;11.55;;;;;;;-140.72;0.00;51958.69;5060585;28;20040;-69
2022/09/04 09:19:16;;;;;;;15.05;11.63;;;;;;;-140.72;0.00;51938.41;5073482;28;20036;-71
2022/09/04 09:22:03;;;;;;;15.57;12.02;;;;;;;-140.72;0.00;51952.59;5068865;28;20029;-72
2022/09/04 09:24:59;;;;;;;14.20;9.70;;;;;;;-140.72;0.00;51905.94;5075401;28;20036;-72
2022/09/04 09:27:50;;;;;;;12.30;9.35;;;;;;;-140.72;0.00;51924.19;5064758;28;20024;-71
2022/09/04 09:30:16;;;;;;;11.73;9.95;;;;;;;-140.72;0.00;51887.66;5071954;28;20029;-72
2022/09/04 09:32:57;;;;;;;12.90;10.43;;;;;;;-140.72;0.00;51926.22;5066300;28;20028;-72
2022/09/04 09:36:01;;;;;;;12.23;8.13;;;;;;;-140.72;0.00;51914.03;5071129;28;20032;-71
2022/09/04 09:38:48;;;;;;;13.95;10.05;;;;;;;-140.72;0.00;51932.31;5056914;28;20039;-71
2022/09/04 09:41:28;;;;;;;14.98;10.77;;;;;;;-140.72;0.00;51903.91;5059521;28;20112;-70
2022/09/04 09:44:00;;;;;;;16.40;11.07;;;;;;;-140.72;0.00;51920.13;5064357;28;20040;-71
2022/09/04 09:47:00;;;;;;;14.90;10.10;;;;;;;-140.72;0.00;51926.22;5065874;28;20033;-70
2022/09/04 09:50:02;;;;;;;15.15;9.77;;;;;;;-140.72;0.00;51930.28;5029920;28;20040;-71
2022/09/04 09:53:06;;;;;;;12.35;10.05;;;;;;;-140.72;0.00;51893.75;5072088;28;20462;-71
2022/09/04 09:55:57;;;;;;;14.07;9.80;;;;;;;-140.72;0.00;51889.69;5063745;28;20067;-72
2022/09/04 09:59:00;;;;;;;13.93;8.77;;;;;;;-140.72;0.00;51891.72;5072025;28;20051;-74
2022/09/04 10:01:44;;;;;;;11.88;9.18;;;;;;;-140.72;0.00;51928.25;5043899;28;20140;-73
2022/09/04 10:04:37;;;;;;;13.77;10.15;;;;;;;-140.72;0.00;51869.41;5059724;28;20098;-71
2022/09/04 10:07:06;;;;;;;11.82;9.52;;;;;;;-140.72;0.00;51843.03;5064873;28;20028;-71
2022/09/04 10:09:49;;;;;;;15.50;9.57;;;;;;;-140.72;0.00;51883.63;5062308;28;20094;-71
2022/09/04 10:12:17;;;;;;;13.40;9.95;;;;;;;-140.72;0.00;51881.59;5072052;28;20039;-70
2022/09/04 10:15:20;;;;;;;13.85;9.27;;;;;;;-140.72;0.00;51899.84;5067530;28;20141;-71
2022/09/04 10:18:31;;;;;;;12.30;9.25;;;;;;;-140.72;0.00;51899.84;5063326;28;20113;-71
2022/09/04 10:21:56;;;;;;;9.65;6.50;;;;;;;-140.72;0.00;51859.28;5061703;28;20035;-73
2022/09/04 10:24:44;;;;;;;7.38;5.30;;;;;;;-140.72;0.00;51841.00;5054111;28;20044;-73
2022/09/04 10:27:24;;;;;;;10.15;6.20;;;;;;;-140.72;0.00;51834.91;5069465;28;20028;-72
2022/09/04 10:29:58;;;;;;;7.90;4.85;;;;;;;-140.72;0.00;51814.63;5062877;28;21204;-72
2022/09/04 10:32:57;;;;;;;8.88;4.82;;;;;;;-140.72;0.00;51820.72;5068970;28;20461;-69
2022/09/04 10:35:44;;;;;;;7.75;4.65;;;;;;;-140.72;0.00;51796.38;5030990;28;20064;-71
2022/09/04 10:38:25;;;;;;;7.38;5.10;;;;;;;-140.72;0.00;51796.38;5070403;28;20021;-70
2022/09/04 10:41:14;;;;;;;7.78;5.10;;;;;;;-140.72;0.00;51763.91;5063880;28;20060;-70
2022/09/04 10:43:45;;;;;;;;;;;;;;;-140.72;0.00;51757.81;5070258;28;20047;-71
2022/09/04 10:46:38;;;;;;;7.38;5.32;;;;;;;-140.72;0.00;51808.53;5068400;28;20347;-69
2022/09/04 10:49:41;;;;;;;13.05;6.15;;;;;;;-140.72;0.00;51804.50;5066632;28;20040;-71
2022/09/04 10:52:23;;;;;;;9.00;6.00;;;;;;;-140.72;0.00;51757.81;5068537;28;20747;-71
2022/09/04 10:55:07;;;;;;;6.97;5.63;;;;;;;-140.72;0.00;51694.94;5067401;28;20051;-70
2022/09/04 10:57:58;;;;;;;9.70;5.40;;;;;;;-140.72;0.00;51731.44;5069456;28;20089;-70
2022/09/04 11:00:52;;;;;;;6.65;4.30;;;;;;;-140.72;0.00;51741.59;5060827;28;20104;-71
2022/09/04 11:03:17;;;;;;;8.57;4.93;;;;;;;-140.72;0.00;51753.78;5057490;28;20108;-73
2022/09/04 11:06:01;;;;;;;9.60;6.00;;;;;;;-140.72;0.00;51772.03;5066680;28;20025;-70
2022/09/04 11:08:38;;;;;;;8.00;5.43;;;;;;;-140.72;0.00;51721.31;5060674;28;20374;-73
2022/09/04 11:11:12;;;;;;;7.97;3.97;;;;;;;-140.72;0.00;51761.88;5064344;28;20036;-71
2022/09/04 11:14:11;;;;;;;6.68;4.80;;;;;;;-140.72;0.00;51751.75;5070617;28;20032;-71
2022/09/04 11:16:39;;;;;;;7.20;3.42;;;;;;;-140.72;0.00;51790.28;5066621;28;20109;-70
2022/09/04 11:19:42;;;;;;;5.00;2.80;;;;;;;-140.72;0.00;51757.81;5067184;28;20044;-71
2022/09/04 11:22:44;;;;;;;4.25;2.88;;;;;;;-140.72;0.00;51757.81;5067004;28;20476;-71
2022/09/04 11:25:27;;;;;;;6.03;3.60;;;;;;;-140.72;0.00;51727.41;5067620;28;20056;-70
2022/09/04 11:28:11;;;;;;;3.90;2.58;;;;;;;-140.72;0.00;51678.72;5071547;28;20064;-71
2022/09/04 11:31:09;;;;;;;6.55;3.33;;;;;;;-140.72;0.00;51703.06;5070763;28;20032;-70
2022/09/04 11:34:12;;;;;;;5.22;2.60;;;;;;;-140.72;0.00;51654.34;5010997;28;20038;-70
2022/09/04 11:36:57;;;;;;;5.30;2.75;;;;;;;-140.72;0.00;51658.41;5056900;28;20036;-73
2022/09/04 11:39:41;;;;;;;2.55;1.05;;;;;;;-140.72;0.00;51591.47;5071080;28;20043;-70
2022/09/04 11:42:13;;;;;;;3.50;1.52;;;;;;;-140.72;0.00;51601.63;5062084;28;20087;-69
2022/09/04 11:44:59;;;;;;;3.22;1.50;;;;;;;-140.72;0.00;51636.09;5064307;28;20028;-72
2022/09/04 11:48:05;;;;;;;3.72;1.33;;;;;;;-140.72;0.00;51640.16;5058670;28;20025;-70
2022/09/04 11:50:56;;;;;;;3.17;1.40;;;;;;;-140.72;0.00;51660.44;5063617;28;20036;-70
2022/09/04 11:53:30;;;;;;;3.70;1.38;;;;;;;-140.72;0.00;51666.53;5061694;28;20039;-69
2022/09/04 11:56:20;;;;;;;4.47;1.95;;;;;;;-140.72;0.00;51648.28;5058592;28;20473;-70
2022/09/04 11:59:16;;;;;;;3.22;1.70;;;;;;;-140.72;0.00;51636.09;5063712;28;20036;-70
2022/09/04 12:02:14;;;;;;;3.22;1.80;;;;;;;-140.72;0.00;51656.38;5069415;28;20505;-70
2022/09/04 12:05:07;;;;;;;4.65;1.23;;;;;;;-140.72;0.00;51628.00;5053593;28;20097;-72
2022/09/04 12:08:09;;;;;;;2.72;1.20;;;;;;;-140.72;0.00;51650.31;5066989;28;20036;-71
2022/09/04 12:11:05;;;;;;;5.05;2.00;;;;;;;-140.72;0.00;51656.38;5054975;28;20044;-70
2022/09/04 12:14:02;;;;;;;3.67;1.73;;;;;;;-140.72;0.00;51711.16;5062727;28;20354;-73
2022/09/04 12:17:07;;;;;;;3.67;1.13;;;;;;;-140.72;0.00;51682.75;5066942;28;20101;-70
2022/09/04 12:19:51;;;;;;;2.05;1.42;;;;;;;-140.72;0.00;51672.63;5065910;28;20080;-70
2022/09/04 12:22:30;;;;;;;2.80;1.50;;;;;;;-140.72;0.00;51634.06;5064993;28;20047;-72
2022/09/04 12:24:58;;;;;;;1.77;0.85;;;;;;;-140.72;0.00;51595.53;5067085;28;20033;-71
2022/09/04 12:27:35;;;;;;;2.97;0.77;;;;;;;-140.72;0.00;51642.19;5063281;28;20029;-71
2022/09/04 12:30:24;;;;;;;2.50;0.98;;;;;;;-140.72;0.00;51654.34;5064580;28;20106;-70
2022/09/04 12:32:59;;;;;;;1.58;0.60;;;;;;;-140.72;0.00;51613.78;5060305;28;20103;-72
2022/09/04 12:35:41;;;;;;;1.58;0.88;;;;;;;-140.72;0.00;51632.03;5057797;28;20029;-71
2022/09/04 12:38:37;;;;;;;1.90;0.90;;;;;;;-140.72;0.00;51640.16;5068421;28;20493;-70
2022/09/04 12:41:11;;;;;;;2.53;1.00;;;;;;;-140.72;0.00;51709.13;5057764;28;20354;-70